CBAPRS
Automatic Packet Reporting System for everyone...
Symbol
PositionLatitude: 52.1825°
Longitude: 10.068°
Speed0km/h
Course
AltitudeN/A
Commentg004t055r000p015P015h99b10169L000eCumulusFOs
Status
PathDAX207-13>APRS via ,TCPIP*
Last heardSun, 20 Oct 2019 21:20:00 +0000

Time is in UTC

  • Wed, 30 Oct 2019 22:50:00 +0000: DAX207-13>APRS,,TCPIP*:@302350z5210.95N/01004.08E_216/003g006t054r000p034P000h85b10119L000eCumulusFOs
  • Wed, 30 Oct 2019 22:40:00 +0000: DAX207-13>APRS,,TCPIP*:@302340z5210.95N/01004.08E_197/004g006t053r000p034P000h85b10119L000eCumulusFOs
  • Wed, 30 Oct 2019 22:30:00 +0000: DAX207-13>APRS,,TCPIP*:@302330z5210.95N/01004.08E_194/002g004t053r000p034P000h85b10119L000eCumulusFOs
  • Wed, 30 Oct 2019 22:20:00 +0000: DAX207-13>APRS,,TCPIP*:@302320z5210.95N/01004.08E_194/002g004t053r000p034P000h85b10122L000eCumulusFOs
  • Wed, 30 Oct 2019 22:10:00 +0000: DAX207-13>APRS,,TCPIP*:@302310z5210.95N/01004.08E_186/002g008t053r000p034P000h86b10122L000eCumulusFOs
  • Wed, 30 Oct 2019 22:00:00 +0000: DAX207-13>APRS,,TCPIP*:@302300z5210.95N/01004.08E_190/003g004t053r000p034P000h86b10124L000eCumulusFOs
  • Wed, 30 Oct 2019 21:50:00 +0000: DAX207-13>APRS,,TCPIP*:@302250z5210.95N/01004.08E_191/000g004t053r000p034P000h85b10126L000eCumulusFOs
  • Wed, 30 Oct 2019 21:40:00 +0000: DAX207-13>APRS,,TCPIP*:@302240z5210.95N/01004.08E_204/002g004t053r000p034P000h85b10127L000eCumulusFOs
  • Wed, 30 Oct 2019 21:30:00 +0000: DAX207-13>APRS,,TCPIP*:@302230z5210.95N/01004.08E_220/002g003t053r000p034P000h85b10129L000eCumulusFOs
  • Wed, 30 Oct 2019 21:20:00 +0000: DAX207-13>APRS,,TCPIP*:@302220z5210.95N/01004.08E_207/002g004t053r000p034P000h85b10127L000eCumulusFOs
  • Wed, 30 Oct 2019 21:10:00 +0000: DAX207-13>APRS,,TCPIP*:@302210z5210.95N/01004.08E_217/001g002t053r000p034P000h84b10129L000eCumulusFOs
  • Wed, 30 Oct 2019 21:00:00 +0000: DAX207-13>APRS,,TCPIP*:@302200z5210.95N/01004.08E_198/002g003t054r000p034P000h84b10129L000eCumulusFOs
  • Sun, 20 Oct 2019 21:20:00 +0000: DAX207-13>APRS,,TCPIP*:@202120z5210.95N/01004.08E_096/002g004t055r000p015P015h99b10169L000eCumulusFOs
  • Sun, 20 Oct 2019 21:10:00 +0000: DAX207-13>APRS,,TCPIP*:@202110z5210.95N/01004.08E_047/003g004t055r000p015P015h99b10171L000eCumulusFOs
  • Sun, 20 Oct 2019 21:00:00 +0000: DAX207-13>APRS,,TCPIP*:@202100z5210.95N/01004.08E_027/002g004t055r000p015P015h99b10170L000eCumulusFOs
  • Sun, 20 Oct 2019 20:50:00 +0000: DAX207-13>APRS,,TCPIP*:@202050z5210.95N/01004.08E_319/002g004t055r000p015P015h99b10173L000eCumulusFOs
  • Sun, 20 Oct 2019 20:40:00 +0000: DAX207-13>APRS,,TCPIP*:@202040z5210.95N/01004.08E_328/002g003t055r000p015P015h99b10174L000eCumulusFOs
  • Sun, 20 Oct 2019 20:30:00 +0000: DAX207-13>APRS,,TCPIP*:@202030z5210.95N/01004.08E_321/002g004t056r000p015P015h99b10172L000eCumulusFOs
  • Sun, 20 Oct 2019 20:20:00 +0000: DAX207-13>APRS,,TCPIP*:@202020z5210.95N/01004.08E_360/000g002t056r000p015P015h99b10172L000eCumulusFOs
  • Sun, 20 Oct 2019 20:10:00 +0000: DAX207-13>APRS,,TCPIP*:@202010z5210.95N/01004.08E_000/000g000t056r000p015P015h99b10174L000eCumulusFOs
  • Sun, 20 Oct 2019 20:00:00 +0000: DAX207-13>APRS,,TCPIP*:@202000z5210.95N/01004.08E_000/000g000t056r000p015P015h99b10172L000eCumulusFOs
  • Sun, 20 Oct 2019 19:50:00 +0000: DAX207-13>APRS,,TCPIP*:@201950z5210.95N/01004.08E_097/000g003t056r000p015P015h99b10173L000eCumulusFOs
  • Sun, 20 Oct 2019 19:40:00 +0000: DAX207-13>APRS,,TCPIP*:@201940z5210.95N/01004.08E_071/002g004t056r000p015P015h99b10172L000eCumulusFOs
  • Sun, 20 Oct 2019 19:30:00 +0000: DAX207-13>APRS,,TCPIP*:@201930z5210.95N/01004.08E_093/003g004t056r000p015P015h99b10171L000eCumulusFOs
  • Sun, 20 Oct 2019 19:20:00 +0000: DAX207-13>APRS,,TCPIP*:@201920z5210.95N/01004.08E_124/001g003t056r000p017P015h99b10171L000eCumulusFOs
  • Sun, 20 Oct 2019 19:10:00 +0000: DAX207-13>APRS,,TCPIP*:@201910z5210.95N/01004.08E_053/002g004t056r000p018P015h99b10173L000eCumulusFOs
  • Sun, 20 Oct 2019 19:00:00 +0000: DAX207-13>APRS,,TCPIP*:@201900z5210.95N/01004.08E_062/000g004t056r000p018P015h99b10171L000eCumulusFOs
  • Sun, 20 Oct 2019 18:50:00 +0000: DAX207-13>APRS,,TCPIP*:@201850z5210.95N/01004.08E_088/002g004t056r000p018P015h99b10170L000eCumulusFOs
  • Sun, 20 Oct 2019 18:40:00 +0000: DAX207-13>APRS,,TCPIP*:@201840z5210.95N/01004.08E_086/003g006t056r000p019P015h99b10168L000eCumulusFOs
  • Sun, 20 Oct 2019 18:30:00 +0000: DAX207-13>APRS,,TCPIP*:@201830z5210.95N/01004.08E_101/002g004t056r000p021P015h99b10170L000eCumulusFOs
  • Sun, 20 Oct 2019 18:20:00 +0000: DAX207-13>APRS,,TCPIP*:@201820z5210.95N/01004.08E_129/002g004t056r001p024P015h98b10170L000eCumulusFOs
  • Sun, 20 Oct 2019 18:10:00 +0000: DAX207-13>APRS,,TCPIP*:@201810z5210.95N/01004.08E_135/002g002t056r001p033P015h98b10172L000eCumulusFOs
  • Sun, 20 Oct 2019 18:00:00 +0000: DAX207-13>APRS,,TCPIP*:@201800z5210.95N/01004.08E_023/000g002t056r001p034P015h98b10173L000eCumulusFOs
  • Sun, 20 Oct 2019 17:50:00 +0000: DAX207-13>APRS,,TCPIP*:@201750z5210.95N/01004.08E_116/000g002t056r001p034P015h98b10174L000eCumulusFOs
  • Sun, 20 Oct 2019 17:40:00 +0000: DAX207-13>APRS,,TCPIP*:@201740z5210.95N/01004.08E_071/000g002t056r001p034P015h97b10174L000eCumulusFOs
  • Sun, 20 Oct 2019 17:30:00 +0000: DAX207-13>APRS,,TCPIP*:@201730z5210.95N/01004.08E_052/000g003t056r001p034P015h97b10177L000eCumulusFOs
  • Sun, 20 Oct 2019 17:20:00 +0000: DAX207-13>APRS,,TCPIP*:@201720z5210.95N/01004.08E_086/002g003t056r000p033P014h97b10175L000eCumulusFOs
  • Sun, 20 Oct 2019 17:10:00 +0000: DAX207-13>APRS,,TCPIP*:@201710z5210.95N/01004.08E_097/001g003t056r000p033P014h97b10174L000eCumulusFOs
  • Sun, 20 Oct 2019 17:00:00 +0000: DAX207-13>APRS,,TCPIP*:@201700z5210.95N/01004.08E_064/002g003t056r000p033P014h97b10174L000eCumulusFOs
  • Sun, 20 Oct 2019 16:50:00 +0000: DAX207-13>APRS,,TCPIP*:@201650z5210.95N/01004.08E_056/002g002t056r000p033P014h96b10174L000eCumulusFOs
  • Sun, 20 Oct 2019 16:40:00 +0000: DAX207-13>APRS,,TCPIP*:@201640z5210.95N/01004.08E_000/000g000t056r000p033P014h96b10175L000eCumulusFOs
  • Sun, 20 Oct 2019 16:30:00 +0000: DAX207-13>APRS,,TCPIP*:@201630z5210.95N/01004.08E_000/000g000t056r000p033P014h96b10174L000eCumulusFOs
  • Sun, 20 Oct 2019 16:20:00 +0000: DAX207-13>APRS,,TCPIP*:@201620z5210.95N/01004.08E_000/000g000t056r000p033P014h96b10174L000eCumulusFOs
  • Sun, 20 Oct 2019 16:10:00 +0000: DAX207-13>APRS,,TCPIP*:@201610z5210.95N/01004.08E_000/000g000t056r000p033P014h95b10172L207eCumulusFOs
  • Sun, 20 Oct 2019 16:00:00 +0000: DAX207-13>APRS,,TCPIP*:@201600z5210.95N/01004.08E_000/000g000t056r001p033P014h95b10171L362eCumulusFOs
  • Sun, 20 Oct 2019 15:50:00 +0000: DAX207-13>APRS,,TCPIP*:@201550z5210.95N/01004.08E_119/000g002t056r002p033P014h95b10172L362eCumulusFOs
  • Sun, 20 Oct 2019 15:40:00 +0000: DAX207-13>APRS,,TCPIP*:@201540z5210.95N/01004.08E_117/002g002t056r004p033P014h95b10170L362eCumulusFOs
  • Sun, 20 Oct 2019 15:30:00 +0000: DAX207-13>APRS,,TCPIP*:@201530z5210.95N/01004.08E_093/002g004t056r004p033P014h94b10170L362eCumulusFOs
  • Sun, 20 Oct 2019 15:20:00 +0000: DAX207-13>APRS,,TCPIP*:@201520z5210.95N/01004.08E_074/000g004t056r004p035P014h94b10170L517eCumulusFOs
  • Sun, 20 Oct 2019 15:10:00 +0000: DAX207-13>APRS,,TCPIP*:@201510z5210.95N/01004.08E_061/004g004t056r002p034P013h94b10168L517eCumulusFOs
  • Sun, 20 Oct 2019 15:00:00 +0000: DAX207-13>APRS,,TCPIP*:@201500z5210.95N/01004.08E_028/004g005t057r002p034P013h93b10167l517eCumulusFOs
  • Sun, 20 Oct 2019 14:50:00 +0000: DAX207-13>APRS,,TCPIP*:@201450z5210.95N/01004.08E_048/002g007t057r001p000P012h93b10169L170eCumulusFOs
  • Sun, 20 Oct 2019 14:40:00 +0000: DAX207-13>APRS,,TCPIP*:@201440z5210.95N/01004.08E_028/003g004t057r000p000P011h93b10170L170eCumulusFOs
  • Sun, 20 Oct 2019 14:30:00 +0000: DAX207-13>APRS,,TCPIP*:@201430z5210.95N/01004.08E_053/004g005t057r000p000P011h92b10169L221eCumulusFOs
  • Sun, 20 Oct 2019 14:20:00 +0000: DAX207-13>APRS,,TCPIP*:@201420z5210.95N/01004.08E_045/004g005t057r000p000P011h92b10169L221eCumulusFOs
  • Sun, 20 Oct 2019 14:10:00 +0000: DAX207-13>APRS,,TCPIP*:@201410z5210.95N/01004.08E_047/002g004t057r000p000P011h91b10170L015eCumulusFOs
  • Sun, 20 Oct 2019 14:00:00 +0000: DAX207-13>APRS,,TCPIP*:@201400z5210.95N/01004.08E_090/002g003t057r000p000P011h91b10172L169eCumulusFOs
  • Sun, 20 Oct 2019 13:50:00 +0000: DAX207-13>APRS,,TCPIP*:@201350z5210.95N/01004.08E_078/002g003t057r000p000P011h91b10170l515eCumulusFOs
  • Sun, 20 Oct 2019 13:40:00 +0000: DAX207-13>APRS,,TCPIP*:@201340z5210.95N/01004.08E_105/002g003t056r000p000P011h90b10170L480eCumulusFOs
  • Sun, 20 Oct 2019 13:30:00 +0000: DAX207-13>APRS,,TCPIP*:@201330z5210.95N/01004.08E_083/002g004t056r000p000P011h90b10172l930eCumulusFOs
  • Sun, 20 Oct 2019 13:20:00 +0000: DAX207-13>APRS,,TCPIP*:@201320z5210.95N/01004.08E_062/002g005t056r000p000P011h90b10172l465eCumulusFOs
  • Sun, 20 Oct 2019 13:10:00 +0000: DAX207-13>APRS,,TCPIP*:@201310z5210.95N/01004.08E_057/004g004t057r000p000P011h90b10172L584eCumulusFOs
  • Sun, 20 Oct 2019 13:00:00 +0000: DAX207-13>APRS,,TCPIP*:@201300z5210.95N/01004.08E_086/002g004t057r000p000P011h89b10172l412eCumulusFOs
  • Sun, 20 Oct 2019 12:50:00 +0000: DAX207-13>APRS,,TCPIP*:@201250z5210.95N/01004.08E_074/002g004t057r000p000P011h89b10172l412eCumulusFOs
  • Sun, 20 Oct 2019 12:40:00 +0000: DAX207-13>APRS,,TCPIP*:@201240z5210.95N/01004.08E_071/003g004t057r000p000P011h89b10170L081eCumulusFOs
  • Sun, 20 Oct 2019 12:30:00 +0000: DAX207-13>APRS,,TCPIP*:@201230z5210.95N/01004.08E_069/004g004t057r000p000P011h89b10172l1292eCumulusFOs
  • Sun, 20 Oct 2019 12:20:00 +0000: DAX207-13>APRS,,TCPIP*:@201220z5210.95N/01004.08E_059/002g006t056r000p000P011h88b10172l101eCumulusFOs
  • Sun, 20 Oct 2019 12:10:00 +0000: DAX207-13>APRS,,TCPIP*:@201210z5210.95N/01004.08E_068/004g005t056r000p000P011h88b10172L739eCumulusFOs
  • Sun, 20 Oct 2019 12:00:00 +0000: DAX207-13>APRS,,TCPIP*:@201200z5210.95N/01004.08E_073/002g005t056r000p000P011h88b10172L532eCumulusFOs
  • Sun, 20 Oct 2019 11:50:00 +0000: DAX207-13>APRS,,TCPIP*:@201150z5210.95N/01004.08E_082/004g004t056r000p000P011h87b10171l1034eCumulusFOs
  • Sun, 20 Oct 2019 11:40:00 +0000: DAX207-13>APRS,,TCPIP*:@201140z5210.95N/01004.08E_090/002g004t056r000p000P011h87b10171l567eCumulusFOs
  • Sun, 20 Oct 2019 11:30:00 +0000: DAX207-13>APRS,,TCPIP*:@201130z5210.95N/01004.08E_087/002g004t057r000p000P011h88b10170L842eCumulusFOs
  • Sun, 20 Oct 2019 11:20:00 +0000: DAX207-13>APRS,,TCPIP*:@201120z5210.95N/01004.08E_098/002g003t056r000p000P011h89b10172l1188eCumulusFOs
  • Sun, 20 Oct 2019 11:10:00 +0000: DAX207-13>APRS,,TCPIP*:@201110z5210.95N/01004.08E_045/002g003t056r000p000P011h89b10172L099eCumulusFOs
  • Sun, 20 Oct 2019 11:00:00 +0000: DAX207-13>APRS,,TCPIP*:@201100z5210.95N/01004.08E_180/000g002t056r000p000P011h90b10173l1189eCumulusFOs
  • Sun, 20 Oct 2019 10:50:00 +0000: DAX207-13>APRS,,TCPIP*:@201050z5210.95N/01004.08E_136/001g003t056r000p000P011h90b10174l309eCumulusFOs
  • Sun, 20 Oct 2019 10:40:00 +0000: DAX207-13>APRS,,TCPIP*:@201040z5210.95N/01004.08E_047/001g004t056r000p000P011h92b10172L221eCumulusFOs
  • Sun, 20 Oct 2019 10:30:00 +0000: DAX207-13>APRS,,TCPIP*:@201030z5210.95N/01004.08E_052/003g004t056r000p000P011h95b10170L086eCumulusFOs
  • Sun, 20 Oct 2019 10:20:00 +0000: DAX207-13>APRS,,TCPIP*:@201020z5210.95N/01004.08E_065/003g004t056r000p000P011h96b10173l567eCumulusFOs
  • Sun, 20 Oct 2019 10:10:00 +0000: DAX207-13>APRS,,TCPIP*:@201010z5210.95N/01004.08E_096/003g004t056r000p000P011h97b10170L083eCumulusFOs
  • Sun, 20 Oct 2019 10:00:00 +0000: DAX207-13>APRS,,TCPIP*:@201000z5210.95N/01004.08E_132/002g003t055r000p000P011h98b10174L636eCumulusFOs
  • Sun, 20 Oct 2019 09:50:00 +0000: DAX207-13>APRS,,TCPIP*:@200950z5210.95N/01004.08E_136/002g004t055r000p000P011h98b10173l308eCumulusFOs
  • Sun, 20 Oct 2019 09:40:00 +0000: DAX207-13>APRS,,TCPIP*:@200940z5210.95N/01004.08E_125/002g004t055r000p000P011h98b10172L090eCumulusFOs
  • Sun, 20 Oct 2019 09:30:00 +0000: DAX207-13>APRS,,TCPIP*:@200930z5210.95N/01004.08E_105/003g004t055r000p000P011h98b10170L085eCumulusFOs
  • Sun, 20 Oct 2019 09:20:00 +0000: DAX207-13>APRS,,TCPIP*:@200920z5210.95N/01004.08E_135/002g003t055r000p000P011h98b10173L098eCumulusFOs
  • Sun, 20 Oct 2019 09:10:00 +0000: DAX207-13>APRS,,TCPIP*:@200910z5210.95N/01004.08E_140/002g004t054r000p000P011h99b10174l1344eCumulusFOs
  • Sun, 20 Oct 2019 09:00:00 +0000: DAX207-13>APRS,,TCPIP*:@200900z5210.95N/01004.08E_137/002g003t054r000p000P011h99b10172L169eCumulusFOs
  • Sun, 20 Oct 2019 08:50:00 +0000: DAX207-13>APRS,,TCPIP*:@200850z5210.95N/01004.08E_146/002g004t054r000p000P011h99b10172l981eCumulusFOs
  • Sun, 20 Oct 2019 08:40:00 +0000: DAX207-13>APRS,,TCPIP*:@200840z5210.95N/01004.08E_142/002g003t054r001p000P011h99b10174l413eCumulusFOs
  • Sun, 20 Oct 2019 08:30:00 +0000: DAX207-13>APRS,,TCPIP*:@200830z5210.95N/01004.08E_132/002g004t054r001p000P011h99b10172L636eCumulusFOs
  • Sun, 20 Oct 2019 08:20:00 +0000: DAX207-13>APRS,,TCPIP*:@200820z5210.95N/01004.08E_146/002g004t054r001p000P011h99b10170L947eCumulusFOs
  • Sun, 20 Oct 2019 08:10:00 +0000: DAX207-13>APRS,,TCPIP*:@200810z5210.95N/01004.08E_137/002g004t054r001p000P011h99b10169l879eCumulusFOs
  • Sun, 20 Oct 2019 08:00:00 +0000: DAX207-13>APRS,,TCPIP*:@200800z5210.95N/01004.08E_133/003g004t054r001p000P011h99b10167l775eCumulusFOs
  • Sun, 20 Oct 2019 07:50:00 +0000: DAX207-13>APRS,,TCPIP*:@200750z5210.95N/01004.08E_134/002g004t054r001p000P011h99b10167l1345eCumulusFOs
  • Sun, 20 Oct 2019 07:40:00 +0000: DAX207-13>APRS,,TCPIP*:@200740z5210.95N/01004.08E_160/002g003t054r000p000P009h99b10171l776eCumulusFOs
  • Sun, 20 Oct 2019 07:30:00 +0000: DAX207-13>APRS,,TCPIP*:@200730z5210.95N/01004.08E_139/002g004t053r001p000P009h99b10170L015eCumulusFOs
  • Sun, 20 Oct 2019 07:20:00 +0000: DAX207-13>APRS,,TCPIP*:@200720z5210.95N/01004.08E_142/001g003t053r001p000P009h99b10168l1122eCumulusFOs
  • Sun, 20 Oct 2019 07:10:00 +0000: DAX207-13>APRS,,TCPIP*:@200710z5210.95N/01004.08E_133/002g003t053r001p000P009h98b10167L776eCumulusFOs
  • Sun, 20 Oct 2019 07:00:00 +0000: DAX207-13>APRS,,TCPIP*:@200700z5210.95N/01004.08E_000/000g000t053r001p000P009h98b10167L776eCumulusFOs
  • Sun, 20 Oct 2019 06:50:00 +0000: DAX207-13>APRS,,TCPIP*:@200650z5210.95N/01004.08E_000/000g000t053r001p000P009h98b10166l1226eCumulusFOs